Time;durP1;ratioP1;P1;durP2;ratioP2;P2;SDS_P1;SDS_P2;PMS_P1;PMS_P2;Temp;Humidity;BMP_temperature;BMP_pressure;BME280_temperature;BME280_humidity;BME280_pressure;Samples;Min_cycle;Max_cycle;Signal;HPM_P1;HPM_P2
2022/12/18 00:00:29;;;;;;;80.43;27.73;;;-3.40;99.90;;;;;;4992236;28;20038;-79
2022/12/18 00:02:55;;;;;;;86.68;29.23;;;-3.40;99.90;;;;;;4991580;28;20096;-79
2022/12/18 00:05:21;;;;;;;79.97;28.65;;;-3.50;99.90;;;;;;4991940;28;20424;-79
2022/12/18 00:07:46;;;;;;;79.35;29.80;;;-3.50;99.90;;;;;;4990385;28;20050;-79
2022/12/18 00:10:12;;;;;;;86.82;28.80;;;-3.50;99.90;;;;;;4990323;28;20048;-79
2022/12/18 00:12:38;;;;;;;77.30;27.77;;;-3.50;99.90;;;;;;4991534;28;20126;-79
2022/12/18 00:15:04;;;;;;;79.07;28.75;;;-3.40;99.90;;;;;;4992178;28;20092;-79
2022/12/18 00:17:29;;;;;;;76.95;29.55;;;-3.50;99.90;;;;;;4989901;28;20050;-79
2022/12/18 00:19:55;;;;;;;76.38;27.95;;;-3.50;99.90;;;;;;4990258;28;20408;-79
2022/12/18 00:22:20;;;;;;;79.40;28.77;;;-3.50;99.90;;;;;;4989966;28;20104;-79
2022/12/18 00:24:46;;;;;;;79.25;29.40;;;-3.50;99.90;;;;;;4990192;28;20046;-79
2022/12/18 00:27:12;;;;;;;77.05;27.02;;;-3.60;99.90;;;;;;4989508;28;20050;-79
2022/12/18 00:29:37;;;;;;;74.90;28.45;;;-3.60;99.90;;;;;;4990367;28;20140;-79
2022/12/18 00:32:03;;;;;;;78.65;30.63;;;-3.60;99.90;;;;;;4990706;28;20152;-78
2022/12/18 00:34:28;;;;;;;77.35;28.48;;;-3.00;99.90;;;;;;4991034;28;20061;-79
2022/12/18 00:36:54;;;;;;;75.07;27.80;;;-3.60;99.90;;;;;;4989304;28;20423;-79
2022/12/18 00:39:20;;;;;;;79.32;30.23;;;-3.60;99.90;;;;;;4989215;28;20050;-79
2022/12/18 00:44:29;;;;;;;84.57;29.65;;;-3.60;99.90;;;;;;4988538;28;20080;-79
2022/12/18 00:46:55;;;;;;;78.88;30.95;;;-3.40;99.90;;;;;;4987362;28;21130;-79
2022/12/18 00:49:20;;;;;;;77.65;29.73;;;-3.60;99.90;;;;;;4988669;28;20042;-79
2022/12/18 00:51:46;;;;;;;86.80;31.15;;;-2.80;99.90;;;;;;4989360;28;20435;-79
2022/12/18 00:54:13;;;;;;;75.32;29.73;;;-3.60;99.90;;;;;;4989739;28;20555;-78
2022/12/18 00:56:40;;;;;;;79.47;30.08;;;-3.60;99.90;;;;;;4988859;28;20144;-79
2022/12/18 00:59:06;;;;;;;84.72;29.23;;;-3.60;99.90;;;;;;4990057;28;20392;-79
2022/12/18 01:01:33;;;;;;;75.47;30.65;;;-3.70;99.90;;;;;;4988154;28;20076;-79
2022/12/18 01:04:00;;;;;;;85.00;31.42;;;-3.60;99.90;;;;;;4990194;28;20066;-79
2022/12/18 01:06:25;;;;;;;78.78;30.45;;;-3.70;99.90;;;;;;4988605;28;20046;-79
2022/12/18 01:08:51;;;;;;;75.38;29.58;;;-3.60;99.90;;;;;;4989061;28;20050;-79
2022/12/18 01:11:19;;;;;;;87.75;30.80;;;-3.60;99.90;;;;;;4988938;28;20350;-79
2022/12/18 01:13:46;;;;;;;79.38;30.20;;;-3.60;99.90;;;;;;4990212;28;20054;-79
2022/12/18 01:16:13;;;;;;;79.60;30.15;;;-3.70;99.90;;;;;;4989578;28;20146;-79
2022/12/18 01:18:39;;;;;;;88.93;33.13;;;-3.90;99.90;;;;;;4988358;28;20050;-79
2022/12/18 01:21:13;;;;;;;79.95;31.23;;;-3.70;99.90;;;;;;4990080;28;20058;-79
2022/12/18 01:23:38;;;;;;;86.93;30.98;;;-3.60;99.90;;;;;;4989888;28;20042;-79
2022/12/18 01:26:09;;;;;;;73.70;31.30;;;-3.60;99.90;;;;;;4990111;28;20534;-79
2022/12/18 01:28:36;;;;;;;77.68;29.52;;;-3.60;99.90;;;;;;4988312;28;20049;-79
2022/12/18 01:31:13;;;;;;;81.35;31.35;;;-3.70;99.90;;;;;;4988364;28;20050;-79
2022/12/18 01:33:38;;;;;;;73.65;29.63;;;-3.60;99.90;;;;;;4988171;28;20062;-79
2022/12/18 01:36:04;;;;;;;76.70;30.33;;;-3.80;99.90;;;;;;4988976;28;20136;-79
2022/12/18 01:38:30;;;;;;;76.55;30.55;;;-3.80;99.90;;;;;;4972001;28;20053;-77
2022/12/18 01:40:59;;;;;;;79.88;32.22;;;-3.90;99.90;;;;;;4989476;28;20054;-77
2022/12/18 01:43:42;;;;;;;77.22;31.83;;;-4.00;99.90;;;;;;4989353;28;20899;-77
2022/12/18 01:46:09;;;;;;;66.18;29.17;;;-4.10;99.90;;;;;;4988252;28;20434;-77
2022/12/18 01:48:35;;;;;;;79.30;30.38;;;-4.10;99.90;;;;;;4989190;28;20050;-77
2022/12/18 01:51:01;;;;;;;81.65;30.45;;;-4.20;99.90;;;;;;4989744;28;20045;-77
2022/12/18 01:53:27;;;;;;;70.03;29.00;;;-4.30;99.90;;;;;;4987273;28;20765;-77
2022/12/18 01:55:56;;;;;;;79.55;31.25;;;-4.30;99.90;;;;;;4989272;28;20042;-77
2022/12/18 01:58:58;;;;;;;83.07;30.60;;;-4.20;99.90;;;;;;4988240;28;20092;-77
2022/12/18 02:01:24;;;;;;;81.85;31.98;;;-4.50;99.90;;;;;;4988858;28;20050;-77
2022/12/18 02:03:51;;;;;;;87.18;33.72;;;-4.50;99.90;;;;;;4987378;28;20057;-77
2022/12/18 02:06:29;;;;;;;86.35;32.08;;;-4.50;99.90;;;;;;4987395;28;20105;-77
2022/12/18 02:09:20;;;;;;;85.32;33.00;;;-4.60;99.90;;;;;;4987841;28;20052;-77
2022/12/18 02:11:57;;;;;;;86.82;30.92;;;-4.70;99.90;;;;;;4986936;28;20056;-77
2022/12/18 02:14:38;;;;;;;82.35;30.48;;;-4.80;99.90;;;;;;4989592;28;20434;-77
2022/12/18 02:17:16;;;;;;;79.82;31.63;;;-4.70;99.90;;;;;;4989430;28;20077;-77
2022/12/18 02:19:55;;;;;;;80.18;30.55;;;-4.80;99.90;;;;;;4989813;28;20127;-76
2022/12/18 02:22:27;;;;;;;86.55;33.22;;;-4.60;99.90;;;;;;4971893;28;20054;-76
2022/12/18 02:24:59;;;;;;;88.07;31.17;;;-4.90;99.90;;;;;;4989041;28;20046;-77
2022/12/18 02:27:27;;;;;;;85.97;33.42;;;-5.00;99.90;;;;;;4986435;28;20058;-76
2022/12/18 02:29:55;;;;;;;76.95;31.45;;;-5.00;99.90;;;;;;4989677;28;20146;-77
2022/12/18 02:32:27;;;;;;;84.90;30.85;;;-5.00;99.90;;;;;;4986165;28;20187;-77
2022/12/18 02:34:54;;;;;;;79.43;30.63;;;-5.20;99.90;;;;;;4987724;28;20060;-77
2022/12/18 02:37:22;;;;;;;78.20;30.27;;;-5.10;99.90;;;;;;4988743;28;20531;-76
2022/12/18 02:39:49;;;;;;;81.90;30.20;;;-5.10;99.90;;;;;;4987842;28;20050;-76
2022/12/18 02:42:16;;;;;;;79.82;31.10;;;-5.10;99.90;;;;;;4985253;28;20046;-77
2022/12/18 02:44:47;;;;;;;78.22;30.23;;;-5.10;99.90;;;;;;4988474;28;20121;-77
2022/12/18 02:47:16;;;;;;;70.55;29.77;;;-5.20;99.90;;;;;;4986701;28;20501;-77
2022/12/18 02:49:44;;;;;;;81.18;30.45;;;-5.20;99.90;;;;;;4989329;28;20047;-77
2022/12/18 02:52:13;;;;;;;84.35;32.15;;;-5.50;99.90;;;;;;4980780;28;20174;-76
2022/12/18 02:54:49;;;;;;;76.10;30.90;;;-5.40;99.90;;;;;;4988510;28;20046;-77
2022/12/18 02:57:33;;;;;;;84.63;32.83;;;-5.30;99.90;;;;;;4985817;28;20042;-77
2022/12/18 03:00:11;;;;;;;77.30;30.73;;;-5.30;99.90;;;;;;4986702;28;20269;-75
2022/12/18 03:02:46;;;;;;;79.15;31.02;;;-5.30;99.90;;;;;;4969713;28;20064;-76
2022/12/18 03:05:34;;;;;;;85.82;30.33;;;-5.30;99.90;;;;;;4970436;28;20139;-76
2022/12/18 03:08:07;;;;;;;83.75;30.70;;;-5.40;99.90;;;;;;4988281;28;20046;-76
2022/12/18 03:10:38;;;;;;;80.45;29.23;;;-5.50;99.90;;;;;;4971904;28;20101;-76
2022/12/18 03:13:16;;;;;;;91.55;31.98;;;-5.40;99.90;;;;;;4989699;28;20057;-76
2022/12/18 03:15:51;;;;;;;80.35;31.75;;;-5.50;99.90;;;;;;4992340;28;20050;-77
2022/12/18 03:18:23;;;;;;;91.47;34.53;;;-5.40;99.90;;;;;;4989706;28;20058;-77
2022/12/18 03:20:51;;;;;;;77.63;30.27;;;-5.50;99.90;;;;;;4990504;28;20142;-77
2022/12/18 03:23:22;;;;;;;85.07;31.33;;;-5.60;99.90;;;;;;4989874;28;20799;-77
2022/12/18 03:25:51;;;;;;;80.28;31.25;;;-5.50;99.90;;;;;;4990383;28;20141;-77
2022/12/18 03:28:21;;;;;;;78.47;29.70;;;-5.60;99.90;;;;;;4982405;28;20662;-76
2022/12/18 03:30:49;;;;;;;74.82;30.00;;;-5.60;99.90;;;;;;4991992;28;20532;-77
2022/12/18 03:33:35;;;;;;;73.35;29.40;;;-5.60;99.90;;;;;;4989123;28;20048;-77
2022/12/18 03:36:01;;;;;;;76.10;29.58;;;-5.60;99.90;;;;;;4990211;28;20857;-77
2022/12/18 03:38:26;;;;;;;78.07;31.83;;;-5.60;99.90;;;;;;4991652;28;20056;-77
2022/12/18 03:41:31;;;;;;;72.63;29.90;;;-5.50;99.90;;;;;;4991158;28;20519;-77
2022/12/18 03:44:29;;;;;;;77.38;28.52;;;-5.70;99.90;;;;;;4980253;28;20058;-77
2022/12/18 03:47:10;;;;;;;69.57;29.15;;;-5.70;99.90;;;;;;4988698;28;20081;-77
2022/12/18 03:49:38;;;;;;;69.10;27.55;;;-5.80;99.90;;;;;;5006096;28;20066;-77
2022/12/18 03:52:27;;;;;;;76.75;29.10;;;-5.70;99.90;;;;;;4989651;28;20038;-77
2022/12/18 03:54:55;;;;;;;71.53;29.70;;;-5.90;99.90;;;;;;4990396;28;20172;-77
2022/12/18 03:57:24;;;;;;;64.10;26.63;;;-5.80;99.90;;;;;;4986287;28;20062;-77
2022/12/18 03:59:55;;;;;;;60.80;26.08;;;-5.80;99.90;;;;;;4977829;28;20454;-77
2022/12/18 04:02:23;;;;;;;69.15;26.25;;;-5.80;99.90;;;;;;4989258;28;20441;-77
2022/12/18 04:04:52;;;;;;;57.55;26.27;;;-5.80;99.90;;;;;;4991135;28;20052;-77
2022/12/18 04:07:19;;;;;;;58.58;24.67;;;-5.80;99.90;;;;;;4971826;28;20043;-77
2022/12/18 04:09:47;;;;;;;69.47;26.83;;;-5.80;99.90;;;;;;4972876;28;20121;-77
2022/12/18 04:12:15;;;;;;;68.72;28.52;;;-5.80;99.90;;;;;;4989554;28;20049;-77
2022/12/18 04:14:41;;;;;;;62.03;26.92;;;-5.90;99.90;;;;;;4991112;28;20038;-77
2022/12/18 04:17:06;;;;;;;61.15;26.95;;;-5.90;99.90;;;;;;4991335;28;20050;-77
2022/12/18 04:19:32;;;;;;;58.80;26.38;;;-5.20;99.90;;;;;;4990411;28;20057;-76
2022/12/18 04:21:58;;;;;;;58.90;25.17;;;-6.00;99.90;;;;;;4973327;28;20099;-77
2022/12/18 04:24:23;;;;;;;61.85;25.50;;;-5.90;99.90;;;;;;4990097;28;20149;-77
2022/12/18 04:26:49;;;;;;;56.83;24.92;;;-6.00;99.90;;;;;;4989208;28;20072;-77
2022/12/18 04:29:14;;;;;;;55.95;24.30;;;-6.00;99.90;;;;;;4989965;28;20455;-77
2022/12/18 04:31:40;;;;;;;49.33;22.27;;;-5.90;99.90;;;;;;4990926;28;20058;-77
2022/12/18 04:34:06;;;;;;;51.85;24.02;;;-6.10;99.90;;;;;;4973558;28;20053;-77
2022/12/18 04:36:31;;;;;;;53.55;23.75;;;-6.10;99.90;;;;;;4989444;28;20043;-77
2022/12/18 04:38:57;;;;;;;45.15;20.58;;;-6.00;99.90;;;;;;4991019;28;20088;-77
2022/12/18 04:41:23;;;;;;;55.42;24.42;;;-6.10;99.90;;;;;;4989006;28;20050;-77
2022/12/18 04:43:48;;;;;;;46.50;23.90;;;-6.10;99.90;;;;;;4989009;28;20046;-77
2022/12/18 04:46:14;;;;;;;54.35;23.08;;;-6.10;99.90;;;;;;4989462;28;20058;-76
2022/12/18 04:48:40;;;;;;;57.33;23.60;;;-6.10;99.90;;;;;;4973408;28;20050;-77
2022/12/18 04:51:06;;;;;;;48.92;22.58;;;-6.20;99.90;;;;;;4989727;28;20467;-77
2022/12/18 04:53:32;;;;;;;50.50;22.30;;;-6.20;99.90;;;;;;4990485;28;20084;-77
2022/12/18 04:56:06;;;;;;;51.13;22.13;;;-6.20;99.90;;;;;;4990333;28;20420;-77
2022/12/18 04:58:32;;;;;;;51.05;22.50;;;-6.20;99.90;;;;;;4990434;28;20096;-77
2022/12/18 05:00:57;;;;;;;49.65;21.63;;;-6.20;99.90;;;;;;4988804;28;20038;-76
2022/12/18 05:03:23;;;;;;;50.97;21.50;;;-6.20;99.90;;;;;;4973088;28;20121;-77
2022/12/18 05:05:52;;;;;;;48.85;21.17;;;-6.20;99.90;;;;;;4990181;28;20077;-76
2022/12/18 05:08:18;;;;;;;46.17;21.50;;;-6.20;99.90;;;;;;4990091;28;20050;-77
2022/12/18 05:10:44;;;;;;;48.28;21.05;;;-6.30;99.90;;;;;;4988948;28;20046;-77
2022/12/18 05:13:09;;;;;;;46.35;21.27;;;-6.30;99.90;;;;;;4986612;28;20134;-77
2022/12/18 05:15:35;;;;;;;42.63;19.60;;;-6.40;99.90;;;;;;4982432;28;20047;-77
2022/12/18 05:18:03;;;;;;;44.20;21.48;;;-6.40;99.90;;;;;;4970932;28;20109;-77
2022/12/18 05:20:29;;;;;;;43.85;20.67;;;-6.30;99.90;;;;;;4989931;28;20420;-77
2022/12/18 05:22:55;;;;;;;42.80;19.73;;;-6.50;99.90;;;;;;4989409;28;20043;-77
2022/12/18 05:25:21;;;;;;;45.53;19.98;;;-6.50;99.90;;;;;;4989566;28;20057;-76
2022/12/18 05:27:47;;;;;;;43.00;19.98;;;-6.40;99.90;;;;;;4988793;28;20089;-77
2022/12/18 05:30:14;;;;;;;45.45;20.80;;;-6.40;99.90;;;;;;4989214;28;20097;-77
2022/12/18 05:32:40;;;;;;;42.85;19.55;;;-6.50;99.90;;;;;;4988477;28;20492;-76
2022/12/18 05:35:07;;;;;;;41.05;20.27;;;-6.50;99.90;;;;;;4989413;28;20048;-77
2022/12/18 05:37:33;;;;;;;38.85;19.85;;;-6.50;99.90;;;;;;4989750;28;20046;-76
2022/12/18 05:39:59;;;;;;;43.38;20.40;;;-6.50;99.90;;;;;;4989409;28;20050;-77
2022/12/18 05:42:24;;;;;;;40.03;19.55;;;-6.50;99.90;;;;;;4987704;28;20383;-77
2022/12/18 05:44:50;;;;;;;43.17;19.05;;;-6.60;99.90;;;;;;4989355;28;20074;-76
2022/12/18 05:47:16;;;;;;;44.30;21.45;;;-6.50;99.90;;;;;;4971168;28;20089;-76
2022/12/18 05:49:41;;;;;;;37.95;19.58;;;-6.50;99.90;;;;;;4971384;28;20042;-77
2022/12/18 05:52:07;;;;;;;45.45;21.40;;;-6.60;99.90;;;;;;4988349;28;20053;-76
2022/12/18 05:54:32;;;;;;;38.83;19.83;;;-6.60;99.90;;;;;;4989228;28;20934;-76
2022/12/18 05:56:58;;;;;;;43.60;21.88;;;-6.20;99.90;;;;;;4987599;28;20046;-77
2022/12/18 05:59:23;;;;;;;47.63;21.58;;;-6.50;99.90;;;;;;4987715;28;20038;-76
2022/12/18 06:01:49;;;;;;;45.97;21.02;;;-6.60;99.90;;;;;;4987514;28;20050;-76
2022/12/18 06:04:15;;;;;;;47.55;21.55;;;-6.70;99.90;;;;;;4988213;28;20129;-76
2022/12/18 06:06:41;;;;;;;44.60;21.13;;;-6.70;99.90;;;;;;4989209;28;20424;-76
2022/12/18 06:09:08;;;;;;;47.42;21.98;;;-6.70;99.90;;;;;;4987739;28;20034;-76
2022/12/18 06:11:35;;;;;;;47.65;21.00;;;-6.90;99.90;;;;;;4987337;28;20146;-75
2022/12/18 06:14:01;;;;;;;44.83;20.85;;;-6.70;99.90;;;;;;4996039;28;20407;-75
2022/12/18 06:16:28;;;;;;;45.22;22.70;;;-6.80;99.90;;;;;;4988580;28;20046;-76
2022/12/18 06:18:57;;;;;;;48.72;21.05;;;-6.80;99.90;;;;;;4988901;28;20065;-75
2022/12/18 06:21:22;;;;;;;46.33;21.00;;;-6.80;99.90;;;;;;4988183;28;20046;-75
2022/12/18 06:23:48;;;;;;;47.15;20.90;;;-6.80;99.90;;;;;;4988697;28;20057;-75
2022/12/18 06:26:14;;;;;;;45.80;20.83;;;-7.10;99.90;;;;;;4988324;28;20053;-75
2022/12/18 06:28:40;;;;;;;43.75;20.35;;;-6.90;99.90;;;;;;4987278;28;20053;-75
2022/12/18 06:31:06;;;;;;;45.03;19.98;;;-6.90;99.90;;;;;;4988845;28;20054;-74
2022/12/18 06:33:33;;;;;;;42.33;20.73;;;-7.00;99.90;;;;;;4988003;28;20046;-75
2022/12/18 06:36:10;;;;;;;43.70;20.52;;;-6.90;99.90;;;;;;4987217;28;20055;-75
2022/12/18 06:38:37;;;;;;;54.45;20.60;;;-7.00;99.90;;;;;;4988796;28;20142;-75
2022/12/18 06:41:07;;;;;;;40.65;18.17;;;-7.00;99.90;;;;;;4986193;28;20052;-75
2022/12/18 06:43:33;;;;;;;41.65;19.92;;;-7.00;99.90;;;;;;4986923;28;20096;-75
2022/12/18 06:46:00;;;;;;;42.60;20.25;;;-7.00;99.90;;;;;;4986475;28;20046;-75
2022/12/18 06:48:26;;;;;;;38.97;18.50;;;-7.00;99.90;;;;;;4986374;28;20051;-76
2022/12/18 06:50:51;;;;;;;43.67;19.88;;;-6.80;99.90;;;;;;4986893;28;20046;-76
2022/12/18 06:53:17;;;;;;;41.47;19.10;;;-7.00;99.90;;;;;;4969700;28;20038;-76
2022/12/18 06:55:44;;;;;;;40.55;19.70;;;-7.00;99.90;;;;;;4973048;28;20042;-77
2022/12/18 06:58:10;;;;;;;41.30;19.13;;;-7.00;99.90;;;;;;4986970;28;20042;-76
2022/12/18 07:00:35;;;;;;;40.35;19.92;;;-6.90;99.90;;;;;;4976502;28;20070;-76
2022/12/18 07:03:01;;;;;;;40.65;19.08;;;-7.00;99.90;;;;;;4971064;28;20142;-75
2022/12/18 07:05:26;;;;;;;38.90;19.25;;;-7.10;99.90;;;;;;4968661;28;20067;-75
2022/12/18 07:07:52;;;;;;;41.00;18.80;;;-7.10;99.90;;;;;;4951884;28;20047;-76
2022/12/18 07:10:18;;;;;;;41.92;19.33;;;-6.70;99.90;;;;;;4983403;28;20054;-75
2022/12/18 07:12:43;;;;;;;39.80;19.38;;;-7.00;99.90;;;;;;4984134;28;20153;-75
2022/12/18 07:15:09;;;;;;;39.10;20.00;;;-7.10;99.90;;;;;;4987121;28;20047;-76
2022/12/18 07:17:35;;;;;;;32.28;17.35;;;-7.10;99.90;;;;;;4984308;28;20057;-76
2022/12/18 07:20:01;;;;;;;39.75;19.17;;;-7.00;99.90;;;;;;4987317;28;20050;-76
2022/12/18 07:22:27;;;;;;;40.40;18.75;;;-7.10;99.90;;;;;;4985361;28;20171;-76
2022/12/18 07:24:52;;;;;;;39.22;18.40;;;-7.00;99.90;;;;;;4986263;28;20065;-77
2022/12/18 07:27:19;;;;;;;37.90;18.60;;;-7.00;99.90;;;;;;4969294;28;20055;-76
2022/12/18 07:29:44;;;;;;;35.03;18.02;;;-7.10;99.90;;;;;;4968573;28;20058;-75
2022/12/18 07:32:10;;;;;;;39.95;19.38;;;-7.10;99.90;;;;;;4979658;28;20547;-75
2022/12/18 07:34:36;;;;;;;34.65;17.45;;;-7.00;99.90;;;;;;4985257;28;20129;-75
2022/12/18 07:37:01;;;;;;;35.85;16.90;;;-7.00;99.90;;;;;;4987102;28;20051;-75
2022/12/18 07:39:27;;;;;;;35.33;17.63;;;-7.10;99.90;;;;;;4988458;28;20050;-75
2022/12/18 07:44:37;;;;;;;37.42;17.63;;;-7.10;99.90;;;;;;4986785;28;20082;-75
2022/12/18 07:47:03;;;;;;;37.25;19.00;;;-7.10;99.90;;;;;;4988775;28;20065;-75
2022/12/18 07:49:28;;;;;;;33.38;18.30;;;-6.90;99.90;;;;;;4988275;28;20082;-75
2022/12/18 07:51:55;;;;;;;32.17;17.77;;;-6.90;99.90;;;;;;4988079;28;20088;-75
2022/12/18 07:54:22;;;;;;;36.00;17.38;;;-7.00;99.90;;;;;;4974843;28;20135;-74
2022/12/18 07:56:48;;;;;;;41.25;19.98;;;-6.90;99.90;;;;;;4972843;28;20129;-74
2022/12/18 07:59:14;;;;;;;40.88;17.55;;;-6.80;99.90;;;;;;4991197;28;20121;-75
2022/12/18 08:01:40;;;;;;;38.13;18.55;;;-6.90;99.90;;;;;;4992531;28;20061;-75
2022/12/18 08:04:05;;;;;;;35.42;18.10;;;-6.90;99.90;;;;;;4991440;28;20042;-76
2022/12/18 08:06:31;;;;;;;33.83;17.52;;;-6.80;99.90;;;;;;4974085;28;20039;-75
2022/12/18 08:08:57;;;;;;;34.08;17.63;;;-6.80;99.90;;;;;;4990727;28;20093;-75
2022/12/18 08:11:24;;;;;;;37.28;18.48;;;-6.90;99.90;;;;;;4974165;28;20122;-75
2022/12/18 08:13:50;;;;;;;38.47;18.58;;;-6.70;99.90;;;;;;4990335;28;20046;-75
2022/12/18 08:16:17;;;;;;;32.80;17.52;;;-6.80;99.90;;;;;;4985596;28;20049;-75
2022/12/18 08:18:42;;;;;;;35.70;17.58;;;-6.70;99.90;;;;;;4991460;28;20042;-75
2022/12/18 08:21:13;;;;;;;33.78;17.83;;;-6.60;99.90;;;;;;4986713;28;20049;-75
2022/12/18 08:23:39;;;;;;;32.47;16.45;;;-6.50;99.90;;;;;;4989484;28;20050;-75
2022/12/18 08:26:05;;;;;;;31.55;16.92;;;-6.60;99.90;;;;;;4990050;28;20051;-75
2022/12/18 08:28:31;;;;;;;30.33;16.70;;;-6.30;99.90;;;;;;4991358;28;20068;-75
2022/12/18 08:30:56;;;;;;;35.42;17.55;;;-6.30;99.90;;;;;;4991539;28;20161;-75
2022/12/18 08:33:22;;;;;;;36.65;17.75;;;-6.20;99.90;;;;;;4991706;28;20051;-75
2022/12/18 08:35:48;;;;;;;31.25;15.88;;;-6.10;99.90;;;;;;4973869;28;20088;-75
2022/12/18 08:38:13;;;;;;;26.65;15.48;;;-6.00;99.90;;;;;;4991480;28;20050;-75
2022/12/18 08:40:39;;;;;;;32.85;17.15;;;-6.00;99.90;;;;;;4989833;28;20073;-75
2022/12/18 08:45:48;;;;;;;24.35;14.65;;;-5.90;99.90;;;;;;4991745;28;20473;-75
2022/12/18 08:48:14;;;;;;;31.23;17.10;;;-5.80;99.90;;;;;;4990579;28;20042;-75
2022/12/18 08:50:40;;;;;;;24.98;14.70;;;-5.70;99.90;;;;;;4989896;28;20046;-75
2022/12/18 08:53:05;;;;;;;28.67;15.73;;;-5.70;99.90;;;;;;4989507;28;20061;-76
2022/12/18 08:55:31;;;;;;;25.65;14.55;;;-5.60;99.90;;;;;;4990317;28;20073;-77
2022/12/18 08:57:56;;;;;;;25.33;15.13;;;-4.40;99.90;;;;;;4973425;28;20047;-77
2022/12/18 09:00:22;;;;;;;26.33;14.68;;;-5.40;99.90;;;;;;4973645;28;20050;-76
2022/12/18 09:02:47;;;;;;;30.15;14.93;;;-5.40;99.90;;;;;;4990798;28;20058;-76
2022/12/18 09:05:13;;;;;;;25.42;14.00;;;-5.30;99.90;;;;;;4991113;28;20133;-76
2022/12/18 09:07:39;;;;;;;28.42;14.90;;;-5.20;99.90;;;;;;4973466;28;20512;-75
2022/12/18 09:10:05;;;;;;;26.08;14.48;;;-5.10;99.90;;;;;;4989167;28;20077;-76
2022/12/18 09:12:31;;;;;;;23.33;14.18;;;-5.10;99.90;;;;;;4989877;28;20370;-76
2022/12/18 09:14:57;;;;;;;28.95;14.68;;;-5.00;99.90;;;;;;4973604;28;20042;-76
2022/12/18 09:17:22;;;;;;;24.38;15.07;;;-4.70;99.90;;;;;;4991045;28;20050;-76
2022/12/18 09:19:49;;;;;;;22.10;14.32;;;-4.80;99.90;;;;;;4989052;28;20670;-76
2022/12/18 09:22:14;;;;;;;25.92;13.80;;;-4.70;99.90;;;;;;4989358;28;20065;-77
2022/12/18 09:24:40;;;;;;;23.95;14.40;;;-4.80;99.90;;;;;;4972898;28;20047;-75
2022/12/18 09:27:05;;;;;;;22.40;14.10;;;-4.60;99.90;;;;;;4990073;28;20069;-74
2022/12/18 09:29:32;;;;;;;21.70;13.40;;;-4.60;99.90;;;;;;4989834;28;20559;-75
2022/12/18 09:31:58;;;;;;;23.13;13.98;;;-4.60;99.90;;;;;;4973420;28;20496;-75
2022/12/18 09:34:23;;;;;;;25.00;15.07;;;-4.50;99.90;;;;;;4990793;28;20058;-74
2022/12/18 09:36:50;;;;;;;28.20;16.52;;;-4.30;99.90;;;;;;4989358;28;20125;-75
2022/12/18 09:39:16;;;;;;;23.75;14.25;;;-4.40;99.90;;;;;;4973133;28;20046;-75
2022/12/18 09:41:54;;;;;;;23.42;14.43;;;-4.30;99.90;;;;;;4990148;28;20050;-74
2022/12/18 09:44:29;;;;;;;21.65;13.55;;;-4.10;99.90;;;;;;4988918;28;20084;-75
2022/12/18 09:47:14;;;;;;;20.85;13.40;;;-3.80;99.90;;;;;;4989974;28;20086;-75
2022/12/18 09:49:45;;;;;;;19.60;12.48;;;-4.00;99.90;;;;;;4989127;28;20065;-75
2022/12/18 09:52:18;;;;;;;20.75;13.65;;;-3.90;99.90;;;;;;4987560;28;20081;-75
2022/12/18 09:54:50;;;;;;;22.45;12.65;;;-3.80;99.90;;;;;;4986382;28;20066;-75
2022/12/18 09:57:20;;;;;;;19.58;11.52;;;-3.70;99.90;;;;;;4987775;28;20113;-75
2022/12/18 09:59:54;;;;;;;18.70;11.75;;;-3.60;99.90;;;;;;4988953;28;20074;-76
2022/12/18 10:02:24;;;;;;;21.50;12.05;;;-3.40;99.90;;;;;;4985165;28;20072;-76
2022/12/18 10:05:14;;;;;;;19.30;11.80;;;-3.40;99.90;;;;;;4987498;28;20120;-76
2022/12/18 10:08:01;;;;;;;13.88;10.55;;;-3.30;99.90;;;;;;4971128;28;20082;-76
2022/12/18 10:10:49;;;;;;;17.60;10.57;;;-3.30;99.90;;;;;;4988159;28;20061;-76
2022/12/18 10:13:20;;;;;;;16.33;10.45;;;-3.20;99.90;;;;;;4986710;28;20049;-76
2022/12/18 10:16:11;;;;;;;15.32;9.93;;;-3.20;99.90;;;;;;4986767;28;20537;-76
2022/12/18 10:18:52;;;;;;;17.80;10.75;;;-3.20;99.90;;;;;;4987143;28;20042;-77
2022/12/18 10:21:26;;;;;;;15.98;9.57;;;-3.10;99.90;;;;;;4987408;28;20049;-76
2022/12/18 10:24:14;;;;;;;17.50;10.02;;;-3.10;99.90;;;;;;4988633;28;20058;-76
2022/12/18 10:26:41;;;;;;;16.08;10.98;;;-3.10;99.90;;;;;;4985529;28;20057;-76
2022/12/18 10:29:15;;;;;;;17.05;10.63;;;-2.80;99.90;;;;;;4988622;28;20055;-76
2022/12/18 10:31:41;;;;;;;20.20;10.73;;;-3.40;99.90;;;;;;4988824;28;20046;-76
2022/12/18 10:34:14;;;;;;;15.15;9.90;;;-3.10;99.90;;;;;;4987377;28;20035;-74
2022/12/18 10:36:40;;;;;;;13.50;9.85;;;-3.10;99.90;;;;;;4988454;28;20116;-75
2022/12/18 10:39:17;;;;;;;14.00;8.82;;;-3.10;99.90;;;;;;4984151;28;20042;-76
2022/12/18 10:41:48;;;;;;;14.65;9.23;;;-3.00;99.90;;;;;;4987505;28;20065;-74
2022/12/18 10:44:22;;;;;;;13.80;9.50;;;-3.10;99.90;;;;;;4970484;28;20038;-77
2022/12/18 10:46:55;;;;;;;15.23;8.98;;;-3.10;99.90;;;;;;4986378;28;20067;-78
2022/12/18 10:49:31;;;;;;;13.60;9.35;;;-2.90;99.90;;;;;;4973432;28;20042;-78
2022/12/18 10:52:20;;;;;;;11.07;7.70;;;-2.90;99.90;;;;;;4980738;28;20054;-76
2022/12/18 10:55:02;;;;;;;10.43;8.10;;;-2.70;99.90;;;;;;4986349;28;20136;-77
2022/12/18 10:57:38;;;;;;;10.52;8.32;;;-2.70;99.90;;;;;;4982891;28;20524;-77
2022/12/18 11:00:27;;;;;;;13.45;7.60;;;-2.60;99.90;;;;;;4987371;28;20050;-77
2022/12/18 11:02:55;;;;;;;9.75;7.15;;;-2.50;99.90;;;;;;4987966;28;20057;-78
2022/12/18 11:05:34;;;;;;;12.10;7.50;;;-2.50;99.90;;;;;;4971910;28;20532;-77
2022/12/18 11:08:19;;;;;;;10.55;6.90;;;-2.20;99.90;;;;;;4972351;28;20081;-76
2022/12/18 11:10:47;;;;;;;10.77;7.32;;;-2.10;99.90;;;;;;4988578;28;20108;-76
2022/12/18 11:13:22;;;;;;;9.68;7.10;;;-2.30;99.90;;;;;;4986646;28;20489;-77
2022/12/18 11:15:48;;;;;;;8.95;6.45;;;-2.40;99.90;;;;;;4988358;28;20046;-77
2022/12/18 11:18:30;;;;;;;10.65;6.88;;;-1.90;99.90;;;;;;4986486;28;20117;-77
2022/12/18 11:20:59;;;;;;;9.67;7.10;;;-1.90;99.90;;;;;;4986390;28;20046;-77
2022/12/18 11:23:26;;;;;;;10.02;6.90;;;-2.10;99.90;;;;;;4988272;28;20047;-78
2022/12/18 11:26:03;;;;;;;10.15;7.72;;;-1.40;99.90;;;;;;4988111;28;20077;-78
2022/12/18 11:28:35;;;;;;;8.73;6.20;;;-2.00;99.90;;;;;;4991156;28;20066;-77
2022/12/18 11:31:27;;;;;;;10.90;6.63;;;-1.80;99.90;;;;;;4986581;28;20461;-78
2022/12/18 11:34:37;;;;;;;9.30;6.88;;;-1.80;99.90;;;;;;4987274;28;20054;-75
2022/12/18 11:37:25;;;;;;;;;;;;;;;;;;;;;
2022/12/18 11:40:30;;;;;;;9.80;6.25;;;-1.80;99.90;;;;;;4991679;28;20389;-78
2022/12/18 11:43:06;;;;;;;12.65;7.20;;;-1.70;99.90;;;;;;4966118;28;20058;-77
2022/12/18 11:45:36;;;;;;;8.02;5.97;;;-1.90;99.90;;;;;;4991321;28;20093;-78
2022/12/18 11:48:38;;;;;;;8.23;5.93;;;-1.80;99.90;;;;;;4989963;28;20556;-77
2022/12/18 11:51:10;;;;;;;9.68;6.15;;;-1.50;99.90;;;;;;4960233;28;20046;-78
2022/12/18 11:53:39;;;;;;;10.57;6.57;;;-1.40;99.90;;;;;;4982336;28;20070;-77
2022/12/18 11:56:24;;;;;;;10.20;6.60;;;-1.40;99.90;;;;;;4990171;28;20078;-77
2022/12/18 11:59:03;;;;;;;8.77;5.97;;;-1.60;99.90;;;;;;4990240;28;20512;-78
2022/12/18 12:02:00;;;;;;;10.95;6.85;;;-1.40;99.90;;;;;;4986238;28;20064;-77
2022/12/18 12:04:56;;;;;;;10.63;6.30;;;-1.20;99.90;;;;;;4983834;28;20093;-78
2022/12/18 12:07:49;;;;;;;12.00;8.00;;;-1.40;99.90;;;;;;4992360;28;20042;-79
2022/12/18 12:10:47;;;;;;;12.68;8.15;;;-1.50;99.90;;;;;;4992120;28;20435;-79
2022/12/18 12:13:24;;;;;;;16.17;8.95;;;-1.30;99.90;;;;;;4990505;28;20126;-79
2022/12/18 12:16:04;;;;;;;18.67;9.85;;;-1.30;99.90;;;;;;4989083;28;20050;-79
2022/12/18 12:19:02;;;;;;;19.30;10.32;;;-1.40;99.90;;;;;;4987614;28;20042;-80
2022/12/18 12:21:57;;;;;;;14.48;8.90;;;-1.50;99.90;;;;;;4986772;28;20538;-79
2022/12/18 12:24:42;;;;;;;14.05;7.35;;;-1.40;99.90;;;;;;4992082;28;20133;-78
2022/12/18 12:27:24;;;;;;;11.48;6.70;;;-1.10;99.90;;;;;;4989376;28;20069;-79
2022/12/18 12:29:59;;;;;;;12.00;7.28;;;-1.20;99.90;;;;;;4989590;28;20050;-80
2022/12/18 12:32:36;;;;;;;9.68;6.90;;;-1.10;99.90;;;;;;4974088;28;20512;-80
2022/12/18 12:35:14;;;;;;;8.60;6.65;;;-1.10;99.90;;;;;;4991158;28;20073;-80
2022/12/18 12:38:07;;;;;;;10.13;6.75;;;-1.20;99.90;;;;;;4988603;28;20049;-78
2022/12/18 12:40:37;;;;;;;11.82;7.00;;;-1.00;99.90;;;;;;4987605;28;20101;-81
2022/12/18 12:43:40;;;;;;;11.63;7.57;;;-1.10;99.90;;;;;;4989743;28;20081;-79
2022/12/18 12:46:11;;;;;;;12.38;7.00;;;-1.10;99.90;;;;;;4970474;28;20058;-79
2022/12/18 12:48:50;;;;;;;8.40;6.10;;;-0.90;99.90;;;;;;4970033;28;20043;-78
2022/12/18 12:51:23;;;;;;;11.40;7.00;;;-0.90;99.90;;;;;;4959816;28;20125;-78
2022/12/18 12:53:51;;;;;;;12.00;6.68;;;-1.10;99.90;;;;;;4989041;28;20512;-78
2022/12/18 12:56:19;;;;;;;10.65;7.60;;;-0.80;99.90;;;;;;4990359;28;20042;-77